createdAt,value
2018-04-02T00:00:05.601Z,44.06
2018-04-02T00:02:31.570Z,43.98
2018-04-02T00:04:57.530Z,43.73
2018-04-02T00:07:23.486Z,44.24
2018-04-02T00:09:49.450Z,44.08
2018-04-02T00:12:15.415Z,43.96
2018-04-02T00:14:41.379Z,44.35
2018-04-02T00:17:07.342Z,44.66
2018-04-02T00:19:33.303Z,44.55
2018-04-02T00:21:59.259Z,44.29
2018-04-02T00:24:25.240Z,44.31
2018-04-02T00:26:51.213Z,45.05
2018-04-02T00:29:17.178Z,44.87
2018-04-02T00:31:43.139Z,44.43
2018-04-02T00:34:09.104Z,44.47
2018-04-02T00:36:35.106Z,44.34
2018-04-02T00:39:01.080Z,44.29
2018-04-02T00:41:27.089Z,44.43
2018-04-02T00:43:53.054Z,44.29
2018-04-02T00:46:19.060Z,44.83
2018-04-02T00:48:45.069Z,44.15
2018-04-02T00:51:11.030Z,44.41
2018-04-02T00:53:36.991Z,44.41
2018-04-02T00:56:02.974Z,44.33
2018-04-02T00:58:28.977Z,44.12
2018-04-02T01:00:54.970Z,43.89
2018-04-02T01:03:20.946Z,43.63
2018-04-02T01:05:46.949Z,44.15
2018-04-02T01:08:12.909Z,43.96
2018-04-02T01:10:38.902Z,43.99
2018-04-02T01:13:04.894Z,44.25
2018-04-02T01:15:30.902Z,44.09
2018-04-02T01:17:56.866Z,44.11
2018-04-02T01:20:22.838Z,43.74
2018-04-02T01:22:49.048Z,43.99
2018-04-02T01:25:15.015Z,43.97
2018-04-02T01:27:40.992Z,44.08
2018-04-02T01:30:06.950Z,43.36
2018-04-02T01:32:32.950Z,43.95
2018-04-02T01:34:59.139Z,44.14
2018-04-02T01:37:32.191Z,43.46
2018-04-02T01:39:58.157Z,43.71
2018-04-02T01:42:24.117Z,43.96
2018-04-02T01:44:50.103Z,43.86
2018-04-02T01:47:16.098Z,43.58
2018-04-02T01:49:42.067Z,43.75
2018-04-02T01:52:08.038Z,44.08
2018-04-02T01:54:34.043Z,43.74
2018-04-02T01:57:00.038Z,43.86
2018-04-02T01:59:26.119Z,43.45
2018-04-02T02:01:52.122Z,43.70
2018-04-02T02:04:18.095Z,43.42
2018-04-02T02:06:44.187Z,43.64
2018-04-02T02:09:10.154Z,43.52
2018-04-02T02:11:36.203Z,44.07
2018-04-02T02:14:02.175Z,43.78
2018-04-02T02:16:28.176Z,43.59
2018-04-02T02:18:54.142Z,43.44
2018-04-02T02:21:20.109Z,43.61
2018-04-02T02:23:46.130Z,43.79
2018-04-02T02:26:12.102Z,43.74
2018-04-02T02:28:38.071Z,43.94
2018-04-02T02:31:04.046Z,43.64
2018-04-02T02:33:30.015Z,43.37
2018-04-02T02:35:55.985Z,43.33
2018-04-02T02:38:22.014Z,43.64
2018-04-02T02:40:47.987Z,43.85
2018-04-02T02:43:13.954Z,43.56
2018-04-02T02:45:39.958Z,43.60
2018-04-02T02:48:05.930Z,43.31
2018-04-02T02:50:31.896Z,43.09
2018-04-02T02:52:57.866Z,42.61
2018-04-02T02:55:23.877Z,43.84
2018-04-02T02:57:49.839Z,43.84
2018-04-02T03:00:15.806Z,43.66
2018-04-02T03:02:41.776Z,43.00
2018-04-02T03:05:07.738Z,43.17
2018-04-02T03:07:33.705Z,43.56
2018-04-02T03:09:59.678Z,43.23
2018-04-02T03:12:25.657Z,43.04
2018-04-02T03:14:51.614Z,43.14
2018-04-02T03:17:24.542Z,43.67
2018-04-02T03:19:50.511Z,43.51
2018-04-02T03:22:16.478Z,43.56
2018-04-02T03:24:42.487Z,43.39
2018-04-02T03:27:08.527Z,43.26
2018-04-02T03:29:34.490Z,43.81
2018-04-02T03:32:00.459Z,43.83
2018-04-02T03:34:26.428Z,44.03
2018-04-02T03:36:52.525Z,43.87
2018-04-02T03:39:18.489Z,43.66
2018-04-02T03:41:44.455Z,43.56
2018-04-02T03:44:10.478Z,43.61
2018-04-02T03:46:36.437Z,44.00
2018-04-02T03:49:02.402Z,44.02
2018-04-02T03:51:28.363Z,43.86
2018-04-02T03:53:54.358Z,43.83
2018-04-02T03:56:20.346Z,43.51
2018-04-02T03:58:46.310Z,43.76
2018-04-02T04:01:12.271Z,43.62
2018-04-02T04:03:38.236Z,43.50
2018-04-02T04:06:04.231Z,43.73
2018-04-02T04:08:31.165Z,43.21
2018-04-02T04:10:57.126Z,43.47
2018-04-02T04:13:23.095Z,43.21
2018-04-02T04:15:49.053Z,43.28
2018-04-02T04:18:15.019Z,43.36
2018-04-02T04:20:42.086Z,43.47
2018-04-02T04:23:08.047Z,43.40
2018-04-02T04:25:34.055Z,43.12
2018-04-02T04:28:00.014Z,43.29
2018-04-02T04:30:26.061Z,43.29
2018-04-02T04:32:52.028Z,43.31
2018-04-02T04:35:18.025Z,43.34
2018-04-02T04:37:44.061Z,42.77
2018-04-02T04:40:10.026Z,42.41
2018-04-02T04:42:35.996Z,43.50
2018-04-02T04:45:01.965Z,42.75
2018-04-02T04:47:27.937Z,42.82
2018-04-02T04:49:53.903Z,42.85
2018-04-02T04:52:19.870Z,42.35
2018-04-02T04:54:45.854Z,42.89
2018-04-02T04:57:11.818Z,42.74
2018-04-02T04:59:37.802Z,42.35
2018-04-02T05:02:03.775Z,42.66
2018-04-02T05:04:29.784Z,42.87
2018-04-02T05:06:55.746Z,43.03
2018-04-02T05:09:21.751Z,42.84
2018-04-02T05:11:47.754Z,43.12
2018-04-02T05:14:13.719Z,42.99
2018-04-02T05:16:39.687Z,42.84
2018-04-02T05:19:05.775Z,42.79
2018-04-02T05:21:31.813Z,42.91
2018-04-02T05:23:57.775Z,42.89
2018-04-02T05:26:23.775Z,43.15
2018-04-02T05:28:49.743Z,42.90
2018-04-02T05:31:15.754Z,42.89
2018-04-02T05:33:41.758Z,43.37
2018-04-02T05:36:07.733Z,42.15
2018-04-02T05:38:33.715Z,42.75
2018-04-02T05:40:59.714Z,43.14
2018-04-02T05:43:26.622Z,42.11
2018-04-02T05:45:52.635Z,42.77
2018-04-02T05:48:18.595Z,43.05
2018-04-02T05:50:44.607Z,42.91
2018-04-02T05:53:10.732Z,43.24
2018-04-02T05:55:36.698Z,43.28
2018-04-02T05:58:02.708Z,42.99
2018-04-02T06:00:28.690Z,43.06
2018-04-02T06:02:54.657Z,42.98
2018-04-02T06:05:20.634Z,42.14
2018-04-02T06:07:46.627Z,42.88
2018-04-02T06:10:12.732Z,43.08
2018-04-02T06:12:38.851Z,43.04
2018-04-02T06:15:04.821Z,43.08
2018-04-02T06:17:30.942Z,42.78
2018-04-02T06:19:56.903Z,43.04
2018-04-02T06:22:22.933Z,43.47
2018-04-02T06:24:49.511Z,42.96
2018-04-02T06:27:15.765Z,43.09
2018-04-02T06:29:41.768Z,42.74
2018-04-02T06:32:07.739Z,43.12
2018-04-02T06:34:33.726Z,42.62
2018-04-02T06:36:59.794Z,42.77
2018-04-02T06:39:25.745Z,43.02
2018-04-02T06:41:51.720Z,43.11
2018-04-02T06:44:17.690Z,43.17
2018-04-02T06:46:45.326Z,42.90
2018-04-02T06:49:11.295Z,43.03
2018-04-02T06:51:38.571Z,42.78
2018-04-02T06:54:04.697Z,43.19
2018-04-02T06:56:30.663Z,42.26
2018-04-02T06:58:56.627Z,43.51
2018-04-02T07:01:22.638Z,42.96
2018-04-02T07:03:48.670Z,42.83
2018-04-02T07:06:15.128Z,43.58
2018-04-02T07:08:41.108Z,43.14
2018-04-02T07:11:07.075Z,42.83
2018-04-02T07:13:33.050Z,43.24
2018-04-02T07:15:59.018Z,43.06
2018-04-02T07:18:25.022Z,43.08
2018-04-02T07:20:50.982Z,42.43
2018-04-02T07:23:16.942Z,43.07
2018-04-02T07:25:42.921Z,42.58
2018-04-02T07:28:08.952Z,42.34
2018-04-02T07:30:34.954Z,42.84
2018-04-02T07:33:00.929Z,42.20
2018-04-02T07:35:26.895Z,42.44
2018-04-02T07:37:52.894Z,42.52
2018-04-02T07:40:18.865Z,42.65
2018-04-02T07:42:44.885Z,42.73
2018-04-02T07:45:10.854Z,42.59
2018-04-02T07:47:36.900Z,42.81
2018-04-02T07:50:02.987Z,42.62
2018-04-02T07:52:28.976Z,42.51
2018-04-02T07:54:54.994Z,42.61
2018-04-02T07:57:20.998Z,42.66
2018-04-02T07:59:46.980Z,42.46
2018-04-02T08:02:12.956Z,42.60
2018-04-02T08:04:38.945Z,42.61
2018-04-02T08:07:05.126Z,43.12
2018-04-02T08:09:31.102Z,42.81
2018-04-02T08:11:57.078Z,42.85
2018-04-02T08:14:23.053Z,42.99
2018-04-02T08:16:49.023Z,42.79
2018-04-02T08:19:14.995Z,43.04
2018-04-02T08:21:41.032Z,43.39
2018-04-02T08:24:07.015Z,43.05
2018-04-02T08:26:32.992Z,43.34
2018-04-02T08:28:58.998Z,43.19
2018-04-02T08:31:25.026Z,43.23
2018-04-02T08:33:51.000Z,42.90
2018-04-02T08:36:17.050Z,43.14
2018-04-02T08:38:43.102Z,43.28
2018-04-02T08:41:09.042Z,43.08
2018-04-02T08:43:35.007Z,43.09
2018-04-02T08:46:00.974Z,43.34
2018-04-02T08:48:26.945Z,43.30
2018-04-02T08:50:52.906Z,43.49
2018-04-02T08:53:18.874Z,42.98
2018-04-02T08:55:44.846Z,42.65
2018-04-02T08:58:10.879Z,43.53
2018-04-02T09:00:36.943Z,42.98
2018-04-02T09:03:02.883Z,43.13
2018-04-02T09:05:28.863Z,43.15
2018-04-02T09:07:54.830Z,43.02
2018-04-02T09:10:20.798Z,42.62
2018-04-02T09:12:46.804Z,42.94
2018-04-02T09:15:12.840Z,42.57
2018-04-02T09:17:38.847Z,42.80
2018-04-02T09:20:04.843Z,43.09
2018-04-02T09:22:30.815Z,42.81
2018-04-02T09:24:56.841Z,42.81
2018-04-02T09:27:22.851Z,42.97
2018-04-02T09:29:48.814Z,43.07
2018-04-02T09:32:14.783Z,42.68
2018-04-02T09:34:40.798Z,42.86
2018-04-02T09:37:06.815Z,43.08
2018-04-02T09:39:32.785Z,43.10
2018-04-02T09:41:58.763Z,42.81
2018-04-02T09:44:24.732Z,43.00
2018-04-02T09:46:50.790Z,43.07
2018-04-02T09:49:16.763Z,43.40
2018-04-02T09:51:42.728Z,42.87
2018-04-02T09:54:08.842Z,43.20
2018-04-02T09:56:34.791Z,42.99
2018-04-02T09:59:00.755Z,43.83
2018-04-02T10:01:28.752Z,42.91
2018-04-02T10:03:54.726Z,42.62
2018-04-02T10:06:20.694Z,42.94
2018-04-02T10:08:46.707Z,42.73
2018-04-02T10:11:12.713Z,42.62
2018-04-02T10:13:38.689Z,42.74
2018-04-02T10:16:04.651Z,42.81
2018-04-02T10:18:30.619Z,41.90
2018-04-02T10:20:56.771Z,42.83
2018-04-02T10:23:22.787Z,42.38
2018-04-02T10:25:48.787Z,42.63
2018-04-02T10:28:14.804Z,42.54
2018-04-02T10:30:40.775Z,42.17
2018-04-02T10:33:06.739Z,41.98
2018-04-02T10:35:32.710Z,42.96
2018-04-02T10:37:58.685Z,42.28
2018-04-02T10:40:24.674Z,42.29
2018-04-02T10:42:50.643Z,42.12
2018-04-02T10:45:16.638Z,42.07
2018-04-02T10:47:42.634Z,42.00
2018-04-02T10:50:08.602Z,42.32
2018-04-02T10:52:34.643Z,42.02
2018-04-02T10:55:00.615Z,42.36
2018-04-02T10:57:26.598Z,42.10
2018-04-02T10:59:52.626Z,42.30
2018-04-02T11:02:18.622Z,42.10
2018-04-02T11:04:44.659Z,42.07
2018-04-02T11:07:10.687Z,41.83
2018-04-02T11:09:36.661Z,41.75
2018-04-02T11:12:02.647Z,41.40
2018-04-02T11:14:28.615Z,41.39
2018-04-02T11:16:54.763Z,41.61
2018-04-02T11:19:20.769Z,41.43
2018-04-02T11:21:46.740Z,41.90
2018-04-02T11:24:12.707Z,42.16
2018-04-02T11:26:38.679Z,42.37
2018-04-02T11:29:04.650Z,42.36
2018-04-02T11:31:30.623Z,42.21
2018-04-02T11:33:56.655Z,42.38
2018-04-02T11:36:22.630Z,42.11
2018-04-02T11:38:48.595Z,41.73
2018-04-02T11:41:14.609Z,41.91
2018-04-02T11:43:40.578Z,42.10
2018-04-02T11:46:06.627Z,41.96
2018-04-02T11:48:32.624Z,42.12
2018-04-02T11:50:58.630Z,41.94
2018-04-02T11:53:24.607Z,41.95
2018-04-02T11:55:50.574Z,42.44
2018-04-02T11:58:16.547Z,42.21
2018-04-02T12:00:42.555Z,42.08
2018-04-02T12:03:08.527Z,42.35
2018-04-02T12:05:34.489Z,41.69
2018-04-02T12:08:00.464Z,41.84
2018-04-02T12:10:26.445Z,41.96
2018-04-02T12:12:52.460Z,41.69
2018-04-02T12:15:18.432Z,41.93
2018-04-02T12:17:44.444Z,41.70
2018-04-02T12:20:10.415Z,41.50
2018-04-02T12:22:36.427Z,41.63
2018-04-02T12:25:02.474Z,42.07
2018-04-02T12:27:28.443Z,41.40
2018-04-02T12:29:54.410Z,42.13
2018-04-02T12:32:20.446Z,42.15
2018-04-02T12:34:46.411Z,42.00
2018-04-02T12:37:12.380Z,41.97
2018-04-02T12:39:38.386Z,42.50
2018-04-02T12:42:04.359Z,42.37
2018-04-02T12:44:30.328Z,42.32
2018-04-02T12:46:56.331Z,42.01
2018-04-02T12:49:22.307Z,42.00
2018-04-02T12:51:48.316Z,42.10
2018-04-02T12:54:15.122Z,42.49
2018-04-02T12:56:41.421Z,42.20
2018-04-02T12:59:07.411Z,42.26
2018-04-02T13:01:33.411Z,42.40
2018-04-02T13:03:59.375Z,42.24
2018-04-02T13:06:25.343Z,42.36
2018-04-02T13:08:51.319Z,42.15
2018-04-02T13:11:17.480Z,42.20
2018-04-02T13:13:43.486Z,42.13
2018-04-02T13:16:09.463Z,42.18
2018-04-02T13:18:35.479Z,42.10
2018-04-02T13:21:01.452Z,42.30
2018-04-02T13:23:27.415Z,42.48
2018-04-02T13:25:53.387Z,42.99
2018-04-02T13:28:19.350Z,42.66
2018-04-02T13:30:45.319Z,42.41
2018-04-02T13:33:11.286Z,42.60
2018-04-02T13:35:37.250Z,42.12
2018-04-02T13:38:03.303Z,41.91
2018-04-02T13:40:29.315Z,42.30
2018-04-02T13:42:55.283Z,42.18
2018-04-02T13:45:21.247Z,42.54
2018-04-02T13:47:47.217Z,42.42
2018-04-02T13:50:13.182Z,42.74
2018-04-02T13:52:39.191Z,42.74
2018-04-02T13:55:05.195Z,42.65
2018-04-02T13:57:31.170Z,42.55
2018-04-02T13:59:57.135Z,42.93
2018-04-02T14:02:23.125Z,42.86
2018-04-02T14:04:51.523Z,43.03
2018-04-02T14:07:17.531Z,43.09
2018-04-02T14:09:43.553Z,42.85
2018-04-02T14:12:09.567Z,42.74
2018-04-02T14:14:35.546Z,42.39
2018-04-02T14:17:01.515Z,42.45
2018-04-02T14:19:27.491Z,42.50
2018-04-02T14:21:53.459Z,42.14
2018-04-02T14:24:19.430Z,42.35
2018-04-02T14:26:45.447Z,42.90
2018-04-02T14:29:11.494Z,42.57
2018-04-02T14:31:37.467Z,42.96
2018-04-02T14:34:03.482Z,42.55
2018-04-02T14:36:29.450Z,42.82
2018-04-02T14:38:55.505Z,42.57
2018-04-02T14:41:21.509Z,42.91
2018-04-02T14:43:47.475Z,43.05
2018-04-02T14:46:13.491Z,43.17
2018-04-02T14:48:39.495Z,42.65
2018-04-02T14:51:05.463Z,42.23
2018-04-02T14:53:31.468Z,42.52
2018-04-02T14:55:57.451Z,42.41
2018-04-02T14:58:23.467Z,42.58
2018-04-02T15:00:49.547Z,42.27
2018-04-02T15:03:15.538Z,42.59
2018-04-02T15:05:41.503Z,42.52
2018-04-02T15:08:07.484Z,42.49
2018-04-02T15:10:33.495Z,42.46
2018-04-02T15:12:59.462Z,42.33
2018-04-02T15:15:25.511Z,42.57
2018-04-02T15:17:52.071Z,42.66
2018-04-02T15:20:18.130Z,42.76
2018-04-02T15:22:44.103Z,42.53
2018-04-02T15:25:10.076Z,42.77
2018-04-02T15:27:36.039Z,43.07
2018-04-02T15:30:02.089Z,42.95
2018-04-02T15:32:28.099Z,43.28
2018-04-02T15:34:54.071Z,43.04
2018-04-02T15:37:20.051Z,43.10
2018-04-02T15:39:46.014Z,43.23
2018-04-02T15:42:12.988Z,43.48
2018-04-02T15:44:38.954Z,43.65
2018-04-02T15:47:04.958Z,43.84
2018-04-02T15:49:30.976Z,43.50
2018-04-02T15:51:56.937Z,43.77
2018-04-02T15:54:22.943Z,44.03
2018-04-02T15:56:48.915Z,43.15
2018-04-02T15:59:14.892Z,43.05
2018-04-02T16:01:40.868Z,43.33
2018-04-02T16:04:06.887Z,43.94
2018-04-02T16:06:33.877Z,43.89
2018-04-02T16:08:59.887Z,43.62
2018-04-02T16:11:26.630Z,43.26
2018-04-02T16:13:52.615Z,43.40
2018-04-02T16:16:18.641Z,42.23
2018-04-02T16:18:44.624Z,42.83
2018-04-02T16:21:10.735Z,42.94
2018-04-02T16:23:36.708Z,43.56
2018-04-02T16:26:03.175Z,43.57
2018-04-02T16:28:29.195Z,43.79
2018-04-02T16:30:55.194Z,43.39
2018-04-02T16:33:21.209Z,43.87
2018-04-02T16:35:47.229Z,43.83
2018-04-02T16:38:13.297Z,43.89
2018-04-02T16:40:39.318Z,43.86
2018-04-02T16:43:05.440Z,43.90
2018-04-02T16:45:31.443Z,43.65
2018-04-02T16:47:57.422Z,43.39
2018-04-02T16:50:23.462Z,43.39
2018-04-02T16:52:49.458Z,43.45
2018-04-02T16:55:15.519Z,43.67
2018-04-02T16:57:41.536Z,43.54
2018-04-02T17:02:54.375Z,43.40
2018-04-02T17:05:20.442Z,43.06
2018-04-02T17:07:46.613Z,43.81
2018-04-02T17:10:12.664Z,43.51
2018-04-02T17:12:38.850Z,43.00
2018-04-02T17:15:04.874Z,43.25
2018-04-02T17:17:30.899Z,43.22
2018-04-02T17:19:56.926Z,43.29
2018-04-02T17:22:22.945Z,42.64
2018-04-02T17:24:48.983Z,42.88
2018-04-02T17:27:15.064Z,43.21
2018-04-02T17:29:41.082Z,43.04
2018-04-02T17:32:07.199Z,42.94
2018-04-02T17:34:33.228Z,42.91
2018-04-02T17:36:59.431Z,42.83
2018-04-02T17:39:25.456Z,42.74
2018-04-02T17:41:51.535Z,43.09
2018-04-02T17:44:19.698Z,43.30
2018-04-02T17:46:45.799Z,43.32
2018-04-02T17:49:13.099Z,43.32
2018-04-02T17:51:39.127Z,42.46
2018-04-02T17:54:06.195Z,42.30
2018-04-02T17:56:33.307Z,42.83
2018-04-02T17:58:59.330Z,42.79
2018-04-02T18:01:25.447Z,42.80
2018-04-02T18:03:51.531Z,42.61
2018-04-02T18:06:17.691Z,42.85
2018-04-02T18:08:44.026Z,42.08
2018-04-02T18:11:10.906Z,42.62
2018-04-02T18:13:36.954Z,42.43
2018-04-02T18:16:03.110Z,42.64
2018-04-02T18:18:29.123Z,42.92
2018-04-02T18:20:55.259Z,42.72
2018-04-02T18:23:21.320Z,42.53
2018-04-02T18:25:47.355Z,42.31
2018-04-02T18:28:14.344Z,42.31
2018-04-02T18:30:40.498Z,41.96
2018-04-02T18:33:07.039Z,41.99
2018-04-02T18:35:34.261Z,42.00
2018-04-02T18:38:01.099Z,41.76
2018-04-02T18:40:27.283Z,42.04
2018-04-02T18:42:53.555Z,41.65
2018-04-02T18:45:20.019Z,41.59
2018-04-02T18:47:46.546Z,41.30
2018-04-02T18:50:13.982Z,41.59
2018-04-02T18:52:41.299Z,41.18
2018-04-02T18:55:08.168Z,41.03
2018-04-02T18:57:34.718Z,41.54
2018-04-02T19:00:02.604Z,41.77
2018-04-02T19:02:29.159Z,42.01
2018-04-02T19:04:55.799Z,42.10
2018-04-02T19:07:22.505Z,42.59
2018-04-02T19:09:49.234Z,41.79
2018-04-02T19:12:17.152Z,41.63
2018-04-02T19:14:43.681Z,41.75
2018-04-02T19:17:10.302Z,40.94
2018-04-02T19:19:36.918Z,41.11
2018-04-02T19:22:03.822Z,41.35
2018-04-02T19:24:30.630Z,41.34
2018-04-02T19:26:58.018Z,41.60
2018-04-02T19:29:25.424Z,41.47
2018-04-02T19:31:52.103Z,41.70
2018-04-02T19:34:19.348Z,40.83
2018-04-02T19:36:45.986Z,41.15
2018-04-02T19:39:13.519Z,41.00
2018-04-02T19:41:41.590Z,41.04
2018-04-02T19:44:09.307Z,40.91
2018-04-02T19:46:36.114Z,41.04
2018-04-02T19:49:02.818Z,41.21
2018-04-02T19:51:30.557Z,41.20
2018-04-02T19:53:57.485Z,40.75
2018-04-02T19:56:24.254Z,41.15
2018-04-02T19:58:51.194Z,41.18
2018-04-02T20:01:18.069Z,40.83
2018-04-02T20:03:45.531Z,40.74
2018-04-02T20:06:12.107Z,41.11
2018-04-02T20:08:38.788Z,41.05
2018-04-02T20:11:05.438Z,40.61
2018-04-02T20:13:32.348Z,41.16
2018-04-02T20:15:58.857Z,41.07
2018-04-02T20:18:25.420Z,40.93
2018-04-02T20:20:52.004Z,40.46
2018-04-02T20:23:18.161Z,40.96
2018-04-02T20:25:44.338Z,40.57
2018-04-02T20:28:11.708Z,40.42
2018-04-02T20:30:38.226Z,40.11
2018-04-02T20:33:05.155Z,40.46
2018-04-02T20:35:31.363Z,40.49
2018-04-02T20:37:57.988Z,40.24
2018-04-02T20:40:24.963Z,40.24
2018-04-02T20:42:51.112Z,40.27
2018-04-02T20:45:17.479Z,40.07
2018-04-02T20:47:43.622Z,40.13
2018-04-02T20:50:09.980Z,40.09
2018-04-02T20:52:36.046Z,40.29
2018-04-02T20:55:02.159Z,40.07
2018-04-02T20:57:28.950Z,39.88
2018-04-02T20:59:55.063Z,39.80
2018-04-02T21:02:21.214Z,40.13
2018-04-02T21:04:48.316Z,39.99
2018-04-02T21:07:14.339Z,39.94
2018-04-02T21:09:40.691Z,39.71
2018-04-02T21:12:06.712Z,40.08
2018-04-02T21:14:33.710Z,39.97
2018-04-02T21:16:59.683Z,39.95
2018-04-02T21:19:25.681Z,39.77
2018-04-02T21:21:51.663Z,40.02
2018-04-02T21:24:17.679Z,39.95
2018-04-02T21:26:43.659Z,39.93
2018-04-02T21:29:09.631Z,39.68
2018-04-02T21:31:35.606Z,40.08
2018-04-02T21:34:01.615Z,39.77
2018-04-02T21:36:27.595Z,39.83
2018-04-02T21:38:53.571Z,39.76
2018-04-02T21:41:19.548Z,39.54
2018-04-02T21:43:45.524Z,39.72
2018-04-02T21:46:11.500Z,39.67
2018-04-02T21:48:37.528Z,39.70
2018-04-02T21:51:03.495Z,39.29
2018-04-02T21:53:29.466Z,39.41
2018-04-02T21:55:55.459Z,39.62
2018-04-02T21:58:21.438Z,39.44
2018-04-02T22:00:47.647Z,39.50
2018-04-02T22:03:13.654Z,39.48
2018-04-02T22:05:46.779Z,39.56
2018-04-02T22:08:12.759Z,39.69
2018-04-02T22:10:38.817Z,39.67
2018-04-02T22:13:04.882Z,39.64
2018-04-02T22:15:30.899Z,39.99
2018-04-02T22:17:56.867Z,39.67
2018-04-02T22:20:22.834Z,39.49
2018-04-02T22:22:48.839Z,39.73
2018-04-02T22:25:14.859Z,39.75
2018-04-02T22:27:40.946Z,39.72
2018-04-02T22:30:06.918Z,39.48
2018-04-02T22:32:32.899Z,39.73
2018-04-02T22:34:58.887Z,39.77
2018-04-02T22:37:24.884Z,39.78
2018-04-02T22:39:50.899Z,39.74
2018-04-02T22:42:16.866Z,39.65
2018-04-02T22:44:42.843Z,39.58
2018-04-02T22:47:08.818Z,39.50
2018-04-02T22:49:34.842Z,39.72
2018-04-02T22:52:00.842Z,39.52
2018-04-02T22:54:26.815Z,39.80
2018-04-02T22:56:52.783Z,39.71
2018-04-02T22:59:18.758Z,40.11
2018-04-02T23:01:44.884Z,39.68
2018-04-02T23:04:10.946Z,39.99
2018-04-02T23:06:36.900Z,39.98
2018-04-02T23:09:02.956Z,39.80
2018-04-02T23:11:28.926Z,39.85
2018-04-02T23:13:54.904Z,39.72
2018-04-02T23:16:20.874Z,39.68
2018-04-02T23:18:46.858Z,39.94
2018-04-02T23:21:12.839Z,40.05
2018-04-02T23:23:38.854Z,40.11
2018-04-02T23:26:05.023Z,39.93
2018-04-02T23:28:30.996Z,39.83
2018-04-02T23:30:57.003Z,39.73
2018-04-02T23:33:23.021Z,40.07
2018-04-02T23:35:48.990Z,39.89
2018-04-02T23:38:14.967Z,39.95
2018-04-02T23:40:40.940Z,39.70
2018-04-02T23:43:06.914Z,39.94
2018-04-02T23:45:32.883Z,39.44
2018-04-02T23:47:58.862Z,39.34
2018-04-02T23:50:24.831Z,39.49
2018-04-02T23:52:50.808Z,39.39
2018-04-02T23:55:16.790Z,39.40
2018-04-02T23:57:42.827Z,39.50
